Time;durP1;ratioP1;P1;durP2;ratioP2;P2;SDS_P1;SDS_P2;PMS_P1;PMS_P2;Temp;Humidity;BMP_temperature;BMP_pressure;BME280_temperature;BME280_humidity;BME280_pressure;Samples;Min_cycle;Max_cycle;Signal;HPM_P1;HPM_P2
2022/11/28 00:01:03;;;;;;;4.67;3.57;;;9.50;99.90;;;;;;5097152;28;20284;-69
2022/11/28 00:03:30;;;;;;;4.17;3.03;;;9.50;99.90;;;;;;5097556;28;20195;-70
2022/11/28 00:06:01;;;;;;;4.37;3.10;;;9.30;99.90;;;;;;5093670;28;20172;-71
2022/11/28 00:08:29;;;;;;;4.60;3.50;;;9.30;99.90;;;;;;5097816;28;20173;-71
2022/11/28 00:10:56;;;;;;;3.53;3.10;;;9.30;99.90;;;;;;5094240;28;20188;-70
2022/11/28 00:13:22;;;;;;;4.20;3.07;;;9.20;99.90;;;;;;5093151;28;20176;-70
2022/11/28 00:16:15;;;;;;;3.93;3.30;;;9.10;99.90;;;;;;5090529;28;20180;-71
2022/11/28 00:18:41;;;;;;;4.77;3.13;;;9.10;99.90;;;;;;5092233;28;20208;-70
2022/11/28 00:21:13;;;;;;;4.00;3.00;;;9.10;99.90;;;;;;5102874;28;20188;-71
2022/11/28 00:23:43;;;;;;;4.47;3.30;;;9.00;99.90;;;;;;5095425;28;20200;-71
2022/11/28 00:26:14;;;;;;;3.97;3.00;;;9.00;99.90;;;;;;5099572;28;20180;-70
2022/11/28 00:28:40;;;;;;;4.30;3.10;;;9.00;99.90;;;;;;5078919;28;20176;-70
2022/11/28 00:31:10;;;;;;;3.97;3.17;;;8.90;99.90;;;;;;5095211;28;20191;-70
2022/11/28 00:33:35;;;;;;;3.77;3.00;;;8.90;99.90;;;;;;5060996;28;20172;-70
2022/11/28 00:36:05;;;;;;;3.90;3.20;;;8.80;99.90;;;;;;5093738;28;20188;-70
2022/11/28 00:38:33;;;;;;;4.57;3.27;;;8.80;99.90;;;;;;5056400;28;20176;-71
2022/11/28 00:41:05;;;;;;;4.13;3.10;;;8.80;99.90;;;;;;5094672;28;20193;-71
2022/11/28 00:43:31;;;;;;;3.83;3.10;;;8.80;99.90;;;;;;5077023;28;20299;-70
2022/11/28 00:45:57;;;;;;;5.73;3.53;;;8.70;99.90;;;;;;5096034;28;20259;-71
2022/11/28 00:48:26;;;;;;;4.33;3.43;;;8.70;99.90;;;;;;5096367;28;20187;-71
2022/11/28 00:50:52;;;;;;;4.73;3.30;;;8.70;99.90;;;;;;5093833;28;20202;-71
2022/11/28 00:53:20;;;;;;;4.13;3.37;;;8.80;99.90;;;;;;5092836;28;20200;-70
2022/11/28 00:55:46;;;;;;;3.67;2.73;;;8.70;99.90;;;;;;5093673;28;20545;-71
2022/11/28 00:58:14;;;;;;;4.13;3.13;;;8.60;99.90;;;;;;5058568;28;20210;-70
2022/11/28 01:00:42;;;;;;;3.67;3.27;;;8.60;99.90;;;;;;5056969;28;20168;-71
2022/11/28 01:03:10;;;;;;;5.17;3.93;;;8.60;99.90;;;;;;5094640;28;20183;-71
2022/11/28 01:05:40;;;;;;;5.80;3.80;;;8.60;99.90;;;;;;5094021;28;21099;-70
2022/11/28 01:08:11;;;;;;;5.13;3.97;;;8.60;99.90;;;;;;5093585;28;20255;-70
2022/11/28 01:10:41;;;;;;;4.10;3.40;;;8.60;99.90;;;;;;5094104;28;20180;-69
2022/11/28 01:13:10;;;;;;;5.67;3.53;;;8.60;99.90;;;;;;5072698;28;20272;-71
2022/11/28 01:15:42;;;;;;;4.73;3.97;;;8.50;99.90;;;;;;5092969;28;20186;-70
2022/11/28 01:18:12;;;;;;;5.03;3.93;;;8.50;99.90;;;;;;5059405;28;20180;-70
2022/11/28 01:20:38;;;;;;;5.00;4.20;;;8.50;99.90;;;;;;5063899;28;20184;-70
2022/11/28 01:23:03;;;;;;;5.20;4.07;;;8.50;99.90;;;;;;5094326;28;20190;-72
2022/11/28 01:25:32;;;;;;;5.83;4.30;;;8.50;99.90;;;;;;5099931;28;20201;-70
2022/11/28 01:27:57;;;;;;;5.27;4.10;;;8.40;99.90;;;;;;5060035;28;20183;-71
2022/11/28 01:30:25;;;;;;;5.50;4.17;;;8.40;99.90;;;;;;5093451;28;20197;-70
2022/11/28 01:32:51;;;;;;;5.27;4.10;;;8.40;99.90;;;;;;5094457;28;20200;-71
2022/11/28 01:35:17;;;;;;;5.47;4.10;;;8.30;99.90;;;;;;5064241;28;20192;-71
2022/11/28 01:37:42;;;;;;;6.07;3.77;;;8.30;99.90;;;;;;5099028;28;20184;-71
2022/11/28 01:40:10;;;;;;;10.33;4.03;;;8.30;99.90;;;;;;5092108;28;20199;-71
2022/11/28 01:42:36;;;;;;;4.73;3.80;;;8.30;99.90;;;;;;5089807;28;20211;-71
2022/11/28 01:45:19;;;;;;;5.70;4.50;;;8.20;99.90;;;;;;5098610;28;20204;-70
2022/11/28 01:47:54;;;;;;;5.73;4.37;;;8.20;99.90;;;;;;5091571;28;20191;-71
2022/11/28 01:50:22;;;;;;;4.10;3.53;;;8.20;99.90;;;;;;5088121;28;20179;-71
2022/11/28 01:52:56;;;;;;;6.90;4.10;;;8.20;99.90;;;;;;5051192;28;20172;-70
2022/11/28 01:55:25;;;;;;;4.50;3.50;;;8.20;99.90;;;;;;5056585;28;20249;-71
2022/11/28 01:57:53;;;;;;;5.13;3.90;;;8.20;99.90;;;;;;5094894;28;20181;-71
2022/11/28 02:00:23;;;;;;;5.23;3.47;;;8.20;99.90;;;;;;5059270;28;20195;-71
2022/11/28 02:02:54;;;;;;;5.40;3.97;;;8.10;99.90;;;;;;5095056;28;20187;-71
2022/11/28 02:05:20;;;;;;;4.23;3.57;;;8.10;99.90;;;;;;5060952;28;20204;-71
2022/11/28 02:07:47;;;;;;;4.63;3.80;;;8.10;99.90;;;;;;5091240;28;20189;-71
2022/11/28 02:10:33;;;;;;;5.87;4.00;;;8.10;99.90;;;;;;5096921;28;20180;-70
2022/11/28 02:13:33;;;;;;;5.23;4.07;;;8.10;99.90;;;;;;5056873;28;20211;-71
2022/11/28 02:16:32;;;;;;;5.90;4.00;;;8.10;99.90;;;;;;5055279;28;20200;-71
2022/11/28 02:19:31;;;;;;;5.93;3.77;;;8.10;99.90;;;;;;5057629;28;20191;-70
2022/11/28 02:22:05;;;;;;;4.70;3.90;;;8.10;99.90;;;;;;5074710;28;20180;-71
2022/11/28 02:24:30;;;;;;;4.27;3.30;;;8.10;99.90;;;;;;5090998;28;20200;-72
2022/11/28 02:26:56;;;;;;;5.13;3.90;;;8.10;99.90;;;;;;5057731;28;20192;-71
2022/11/28 02:29:50;;;;;;;4.57;3.80;;;8.10;99.90;;;;;;5092522;28;20185;-70
2022/11/28 02:32:23;;;;;;;4.37;3.43;;;8.10;99.90;;;;;;5055800;28;20279;-71
2022/11/28 02:34:58;;;;;;;3.77;3.33;;;8.20;99.90;;;;;;5057842;28;20271;-70
2022/11/28 02:37:42;;;;;;;4.90;3.77;;;8.20;99.90;;;;;;5091365;28;20180;-71
2022/11/28 02:40:35;;;;;;;4.53;3.83;;;8.20;99.90;;;;;;5092280;28;20198;-71
2022/11/28 02:43:47;;;;;;;5.13;3.60;;;8.20;99.90;;;;;;5094173;28;20226;-71
2022/11/28 02:46:19;;;;;;;3.87;3.07;;;8.20;99.90;;;;;;5056601;28;20200;-71
2022/11/28 02:49:00;;;;;;;4.87;3.10;;;8.30;99.90;;;;;;5091158;28;20176;-69
2022/11/28 02:51:50;;;;;;;4.40;3.37;;;8.30;99.90;;;;;;5063456;28;20180;-70
2022/11/28 02:54:19;;;;;;;4.40;3.47;;;8.30;99.90;;;;;;5091282;28;20234;-70
2022/11/28 02:56:52;;;;;;;4.83;3.73;;;8.40;99.90;;;;;;5061836;28;20176;-71
2022/11/28 02:59:44;;;;;;;3.90;3.37;;;8.40;99.90;;;;;;5100217;28;20219;-70
2022/11/28 03:02:17;;;;;;;4.30;3.47;;;8.40;99.90;;;;;;5079469;28;20179;-70
2022/11/28 03:05:10;;;;;;;4.40;3.37;;;8.40;99.90;;;;;;5090625;28;20236;-70
2022/11/28 03:08:07;;;;;;;3.27;2.80;;;8.40;99.90;;;;;;5050587;28;20176;-70
2022/11/28 03:10:49;;;;;;;3.50;3.10;;;8.40;99.90;;;;;;5056349;28;20223;-70
2022/11/28 03:13:18;;;;;;;4.37;3.30;;;8.40;99.90;;;;;;5058948;28;20238;-70
2022/11/28 03:16:04;;;;;;;4.30;3.37;;;8.40;99.90;;;;;;5089017;28;20186;-70
2022/11/28 03:18:44;;;;;;;4.47;3.80;;;8.40;99.90;;;;;;5088586;28;20177;-70
2022/11/28 03:21:35;;;;;;;4.83;3.73;;;8.40;99.90;;;;;;5076929;28;20187;-70
2022/11/28 03:24:23;;;;;;;5.87;4.27;;;8.40;99.90;;;;;;5076484;28;20219;-70
2022/11/28 03:27:06;;;;;;;6.80;3.60;;;8.40;99.90;;;;;;5054512;28;20172;-71
2022/11/28 03:29:38;;;;;;;5.00;3.87;;;8.50;99.90;;;;;;5093583;28;20187;-70
2022/11/28 03:32:10;;;;;;;4.47;3.80;;;8.40;99.90;;;;;;5057681;28;20547;-70
2022/11/28 03:34:43;;;;;;;5.30;4.40;;;8.40;99.90;;;;;;5083238;28;20181;-70
2022/11/28 03:37:28;;;;;;;4.63;3.93;;;8.50;99.90;;;;;;5089978;28;20176;-70
2022/11/28 03:40:02;;;;;;;4.83;4.00;;;8.50;99.90;;;;;;5093647;28;20173;-70
2022/11/28 03:42:32;;;;;;;4.60;3.80;;;8.40;99.90;;;;;;5062407;28;20195;-68
2022/11/28 03:45:01;;;;;;;4.90;3.70;;;8.40;99.90;;;;;;5091950;28;20197;-70
2022/11/28 03:47:31;;;;;;;4.07;3.67;;;8.50;99.90;;;;;;5091481;28;20177;-69
2022/11/28 03:50:05;;;;;;;4.20;3.40;;;8.50;99.90;;;;;;5089723;28;20260;-68
2022/11/28 03:52:42;;;;;;;4.63;3.47;;;8.50;99.90;;;;;;5057384;28;20183;-68
2022/11/28 03:55:33;;;;;;;4.03;3.43;;;8.50;99.90;;;;;;5092002;28;20184;-71
2022/11/28 03:58:09;;;;;;;4.50;3.93;;;8.50;99.90;;;;;;5057359;28;20184;-71
2022/11/28 04:00:47;;;;;;;5.20;3.93;;;8.50;99.90;;;;;;5056431;28;20181;-69
2022/11/28 04:03:38;;;;;;;4.83;3.90;;;8.50;99.90;;;;;;5090705;28;20180;-71
2022/11/28 04:06:29;;;;;;;5.07;3.67;;;8.50;99.90;;;;;;5086222;28;20264;-70
2022/11/28 04:09:02;;;;;;;5.30;3.70;;;8.50;99.90;;;;;;5090735;28;20283;-69
2022/11/28 04:11:40;;;;;;;4.47;3.70;;;8.60;99.90;;;;;;5053231;28;20218;-70
2022/11/28 04:14:31;;;;;;;4.40;3.77;;;8.50;99.90;;;;;;5093165;28;20191;-69
2022/11/28 04:17:08;;;;;;;4.50;3.57;;;8.50;99.90;;;;;;5087223;28;20203;-68
2022/11/28 04:19:52;;;;;;;5.23;3.60;;;8.60;99.90;;;;;;5054820;28;20195;-70
2022/11/28 04:22:29;;;;;;;4.47;3.47;;;8.60;99.90;;;;;;5090516;28;20208;-69
2022/11/28 04:25:03;;;;;;;5.43;3.63;;;8.60;99.90;;;;;;5058869;28;20211;-69
2022/11/28 04:27:36;;;;;;;3.60;3.20;;;8.60;99.90;;;;;;5061008;28;20180;-69
2022/11/28 04:30:06;;;;;;;3.93;3.10;;;8.60;99.90;;;;;;5076163;28;20199;-69
2022/11/28 04:32:36;;;;;;;4.27;3.47;;;8.60;99.90;;;;;;5089514;28;20214;-68
2022/11/28 04:35:09;;;;;;;4.60;3.90;;;8.70;99.90;;;;;;5061562;28;20184;-70
2022/11/28 04:37:38;;;;;;;5.23;3.70;;;8.60;99.90;;;;;;5092973;28;20181;-70
2022/11/28 04:40:10;;;;;;;4.80;4.00;;;8.60;99.90;;;;;;5092126;28;20215;-69
2022/11/28 04:42:44;;;;;;;4.53;3.83;;;8.60;99.90;;;;;;5067471;28;20192;-68
2022/11/28 04:45:32;;;;;;;4.93;3.80;;;8.60;99.90;;;;;;5095368;28;20211;-69
2022/11/28 04:47:59;;;;;;;7.10;3.87;;;8.60;99.90;;;;;;5077995;28;20191;-70
2022/11/28 04:50:35;;;;;;;5.37;4.20;;;8.60;99.90;;;;;;5095600;28;20287;-69
2022/11/28 04:53:20;;;;;;;4.13;3.73;;;8.60;99.90;;;;;;5060443;28;20176;-69
2022/11/28 04:55:52;;;;;;;5.20;3.90;;;8.60;99.90;;;;;;5098492;28;20181;-69
2022/11/28 04:58:23;;;;;;;4.53;3.67;;;8.60;99.90;;;;;;5064742;28;20172;-69
2022/11/28 05:00:51;;;;;;;3.80;3.30;;;8.70;99.90;;;;;;5094293;28;20197;-70
2022/11/28 05:03:21;;;;;;;5.70;4.20;;;8.60;99.90;;;;;;5061747;28;20204;-70
2022/11/28 05:05:49;;;;;;;4.30;3.60;;;8.60;99.90;;;;;;5059920;28;20236;-69
2022/11/28 05:08:16;;;;;;;4.47;3.77;;;8.60;99.90;;;;;;5063257;28;20176;-69
2022/11/28 05:10:41;;;;;;;4.40;3.47;;;8.60;99.90;;;;;;5091320;28;20322;-70
2022/11/28 05:13:07;;;;;;;4.63;3.90;;;8.70;99.90;;;;;;5060816;28;20268;-69
2022/11/28 05:15:33;;;;;;;4.60;4.00;;;8.70;99.90;;;;;;5093105;28;20220;-69
2022/11/28 05:17:59;;;;;;;5.17;4.30;;;8.60;99.90;;;;;;5095580;28;20345;-69
2022/11/28 05:20:27;;;;;;;5.27;4.13;;;8.60;99.90;;;;;;5091721;28;20191;-70
2022/11/28 05:22:53;;;;;;;4.83;4.27;;;8.70;99.90;;;;;;5092902;28;20207;-70
2022/11/28 05:25:19;;;;;;;6.07;4.80;;;8.70;99.90;;;;;;5094159;28;20196;-70
2022/11/28 05:27:45;;;;;;;6.73;5.20;;;8.70;99.90;;;;;;5093529;28;20195;-70
2022/11/28 05:30:14;;;;;;;5.07;4.20;;;8.70;99.90;;;;;;5093443;28;20180;-70
2022/11/28 05:32:42;;;;;;;5.53;4.67;;;8.70;99.90;;;;;;5093320;28;20168;-70
2022/11/28 05:35:08;;;;;;;5.83;3.97;;;8.70;99.90;;;;;;5092064;28;20181;-70
2022/11/28 05:37:36;;;;;;;5.30;4.00;;;8.70;99.90;;;;;;5094135;28;20183;-69
2022/11/28 05:40:04;;;;;;;4.60;3.87;;;8.60;99.90;;;;;;5096763;28;20175;-69
2022/11/28 05:42:38;;;;;;;4.70;3.57;;;8.70;99.90;;;;;;5096269;28;20188;-68
2022/11/28 05:45:04;;;;;;;4.77;3.50;;;8.70;99.90;;;;;;5059660;28;20220;-69
2022/11/28 05:47:33;;;;;;;5.57;4.37;;;8.70;99.90;;;;;;5090291;28;20263;-69
2022/11/28 05:50:01;;;;;;;4.27;3.73;;;8.70;99.90;;;;;;5093023;28;20180;-70
2022/11/28 05:52:33;;;;;;;4.47;3.80;;;8.70;99.90;;;;;;5093288;28;20172;-69
2022/11/28 05:54:59;;;;;;;5.13;3.60;;;8.70;99.90;;;;;;5062220;28;20180;-69
2022/11/28 05:57:24;;;;;;;4.20;3.67;;;8.70;99.90;;;;;;5059259;28;20276;-69
2022/11/28 05:59:52;;;;;;;4.47;3.57;;;8.70;99.90;;;;;;5096440;28;20259;-70
2022/11/28 06:02:18;;;;;;;5.03;3.60;;;8.70;99.90;;;;;;5091209;28;21190;-68
2022/11/28 06:04:46;;;;;;;4.20;3.43;;;8.80;99.90;;;;;;5061431;28;20200;-69
2022/11/28 06:07:11;;;;;;;4.37;3.50;;;8.70;99.90;;;;;;5059912;28;20230;-70
2022/11/28 06:09:37;;;;;;;4.67;3.97;;;8.80;99.90;;;;;;5096455;28;20180;-68
2022/11/28 06:12:06;;;;;;;5.80;4.00;;;8.70;99.90;;;;;;5100080;28;20204;-78
2022/11/28 06:14:31;;;;;;;4.63;3.77;;;8.80;99.90;;;;;;5092926;28;20189;-78
2022/11/28 06:16:59;;;;;;;5.20;3.90;;;8.80;99.90;;;;;;5091333;28;20187;-75
2022/11/28 06:19:29;;;;;;;4.60;3.93;;;8.80;99.90;;;;;;5092385;28;20195;-79
2022/11/28 06:21:57;;;;;;;4.83;3.70;;;8.70;99.90;;;;;;5059884;28;20172;-78
2022/11/28 06:24:25;;;;;;;5.03;3.87;;;8.70;99.90;;;;;;5060922;28;20305;-79
2022/11/28 06:26:51;;;;;;;4.57;4.07;;;8.70;99.90;;;;;;5089674;28;20203;-79
2022/11/28 06:29:17;;;;;;;4.87;3.70;;;8.60;99.90;;;;;;5060730;28;20200;-79
2022/11/28 06:31:42;;;;;;;4.23;3.40;;;8.70;99.90;;;;;;5095138;28;20180;-79
2022/11/28 06:34:11;;;;;;;4.90;4.00;;;8.70;99.90;;;;;;5090939;28;20176;-80
2022/11/28 06:36:39;;;;;;;5.60;4.30;;;8.60;99.90;;;;;;5055868;28;20199;-79
2022/11/28 06:39:08;;;;;;;4.80;3.77;;;8.70;99.90;;;;;;5056413;28;20269;-80
2022/11/28 06:41:34;;;;;;;6.93;3.90;;;8.50;99.90;;;;;;5092055;28;20404;-81
2022/11/28 06:44:00;;;;;;;5.60;4.20;;;8.50;99.90;;;;;;5091848;28;20287;-79
2022/11/28 06:46:25;;;;;;;4.57;3.90;;;8.60;99.90;;;;;;5090291;28;20509;-77
2022/11/28 06:48:53;;;;;;;5.07;3.77;;;8.50;99.90;;;;;;5057770;28;20213;-78
2022/11/28 06:51:20;;;;;;;5.17;4.23;;;8.40;99.90;;;;;;5092705;28;20189;-78
2022/11/28 06:53:48;;;;;;;4.37;3.57;;;8.40;99.90;;;;;;5060395;28;20207;-77
2022/11/28 06:56:18;;;;;;;4.97;3.70;;;8.30;99.90;;;;;;5094178;28;20191;-75
2022/11/28 06:58:52;;;;;;;4.80;4.10;;;8.30;99.90;;;;;;5090745;28;20218;-80
2022/11/28 07:01:20;;;;;;;6.47;4.27;;;8.30;99.90;;;;;;5056416;28;20173;-73
2022/11/28 07:03:49;;;;;;;4.53;3.83;;;8.30;99.90;;;;;;5085193;28;20173;-79
2022/11/28 07:06:23;;;;;;;4.30;3.40;;;8.30;99.90;;;;;;5091537;28;20176;-76
2022/11/28 07:08:49;;;;;;;5.37;4.00;;;8.30;99.90;;;;;;5098102;28;20235;-79
2022/11/28 07:11:23;;;;;;;3.87;3.30;;;8.20;99.90;;;;;;5080427;28;20237;-81
2022/11/28 07:13:52;;;;;;;4.13;3.03;;;8.20;99.90;;;;;;5093082;28;20245;-75
2022/11/28 07:16:21;;;;;;;3.83;3.03;;;8.20;99.90;;;;;;5088689;28;20199;-76
2022/11/28 07:18:48;;;;;;;5.00;3.33;;;8.20;99.90;;;;;;5066375;28;20234;-76
2022/11/28 07:21:15;;;;;;;3.73;3.20;;;8.20;99.90;;;;;;5089160;28;20422;-77
2022/11/28 07:23:44;;;;;;;3.50;3.10;;;8.20;99.90;;;;;;5088425;28;20184;-77
2022/11/28 07:26:12;;;;;;;4.40;3.60;;;8.20;99.90;;;;;;5092142;28;20371;-75
2022/11/28 07:28:40;;;;;;;3.90;3.13;;;8.30;99.90;;;;;;5088676;28;20184;-77
2022/11/28 07:31:11;;;;;;;4.13;3.50;;;8.20;99.90;;;;;;5088838;28;20180;-78
2022/11/28 07:33:40;;;;;;;3.57;2.83;;;8.20;99.90;;;;;;5053714;28;20187;-76
2022/11/28 07:36:11;;;;;;;4.80;3.60;;;8.20;99.90;;;;;;5090909;28;20173;-77
2022/11/28 07:38:36;;;;;;;5.40;3.67;;;8.20;99.90;;;;;;5070720;28;20181;-80
2022/11/28 07:41:10;;;;;;;5.10;3.30;;;8.20;99.90;;;;;;5061096;28;20413;-84
2022/11/28 07:43:38;;;;;;;4.43;3.63;;;8.20;99.90;;;;;;5093780;28;20493;-85
2022/11/28 07:46:09;;;;;;;4.83;3.40;;;8.20;99.90;;;;;;5091532;28;20185;-80
2022/11/28 07:48:35;;;;;;;5.23;4.00;;;8.20;99.90;;;;;;5091272;28;20191;-78
2022/11/28 07:51:08;;;;;;;4.93;3.80;;;8.20;99.90;;;;;;5091505;28;20208;-80
2022/11/28 07:53:36;;;;;;;4.60;3.60;;;8.20;99.90;;;;;;5058325;28;20196;-84
2022/11/28 07:56:06;;;;;;;4.63;3.70;;;8.30;99.90;;;;;;5090647;28;20188;-80
2022/11/28 07:58:33;;;;;;;5.33;3.50;;;8.20;99.90;;;;;;5090848;28;20184;-82
2022/11/28 08:01:09;;;;;;;4.90;3.87;;;8.20;99.90;;;;;;5059322;28;20176;-79
2022/11/28 08:03:35;;;;;;;3.80;2.83;;;8.30;99.90;;;;;;5049445;28;20173;-84
2022/11/28 08:06:02;;;;;;;4.97;3.50;;;8.30;99.90;;;;;;5094750;28;20184;-83
2022/11/28 08:08:28;;;;;;;4.90;3.40;;;8.30;99.90;;;;;;5094505;28;20264;-84
2022/11/28 08:10:57;;;;;;;4.73;3.60;;;8.30;99.90;;;;;;5094985;28;20227;-84
2022/11/28 08:13:29;;;;;;;4.83;3.40;;;8.40;99.90;;;;;;5077064;28;20183;-85
2022/11/28 08:15:57;;;;;;;4.00;3.33;;;8.40;99.90;;;;;;5114035;28;20160;-83
2022/11/28 08:18:23;;;;;;;5.00;3.50;;;8.40;99.90;;;;;;5096786;28;20180;-85
2022/11/28 08:20:50;;;;;;;4.70;3.40;;;8.40;99.90;;;;;;5061415;28;20183;-83
2022/11/28 08:23:16;;;;;;;5.33;3.37;;;8.40;99.90;;;;;;5059514;28;20271;-85
2022/11/28 08:25:44;;;;;;;4.93;3.10;;;8.40;99.90;;;;;;5061474;28;20283;-84
2022/11/28 08:28:12;;;;;;;5.13;3.70;;;8.50;99.90;;;;;;5059526;28;20165;-80
2022/11/28 08:30:38;;;;;;;4.63;3.80;;;8.50;99.90;;;;;;5060899;28;20181;-84
2022/11/28 08:33:05;;;;;;;4.13;3.33;;;8.50;99.90;;;;;;5097395;28;20203;-83
2022/11/28 08:35:31;;;;;;;5.07;3.47;;;8.50;99.90;;;;;;5097306;28;20207;-85
2022/11/28 08:37:57;;;;;;;4.60;3.43;;;8.50;99.90;;;;;;5062115;28;20192;-82
2022/11/28 08:40:22;;;;;;;4.50;3.47;;;8.50;99.90;;;;;;5094430;28;20358;-84
2022/11/28 08:42:50;;;;;;;4.50;3.47;;;8.60;99.90;;;;;;5094645;28;20191;-85
2022/11/28 08:45:18;;;;;;;4.37;3.47;;;8.50;99.90;;;;;;5094214;28;20211;-86
2022/11/28 08:47:44;;;;;;;4.33;3.47;;;8.50;99.90;;;;;;5093706;28;20181;-85
2022/11/28 08:50:11;;;;;;;4.50;3.43;;;8.70;99.90;;;;;;5096863;28;20291;-82
2022/11/28 08:52:37;;;;;;;4.97;3.93;;;8.60;99.90;;;;;;5096072;28;20270;-86
2022/11/28 08:55:05;;;;;;;4.97;3.67;;;8.60;99.90;;;;;;5095797;28;20184;-82
2022/11/28 08:57:31;;;;;;;5.43;3.77;;;8.60;99.90;;;;;;5062709;28;20185;-82
2022/11/28 08:59:56;;;;;;;4.13;3.37;;;8.70;99.90;;;;;;5099460;28;20259;-85
2022/11/28 09:02:24;;;;;;;3.87;3.20;;;8.60;99.90;;;;;;5093777;28;20187;-84
2022/11/28 09:04:50;;;;;;;5.23;3.40;;;8.70;99.90;;;;;;5093371;28;20200;-84
2022/11/28 09:07:15;;;;;;;4.00;3.60;;;8.70;99.90;;;;;;5097574;28;20272;-83
2022/11/28 09:09:44;;;;;;;5.03;4.00;;;8.70;99.90;;;;;;5092404;28;20259;-84
2022/11/28 09:12:11;;;;;;;6.03;4.00;;;8.70;99.90;;;;;;5097590;28;20202;-82
2022/11/28 09:14:42;;;;;;;4.47;3.80;;;8.80;99.90;;;;;;5093657;28;20185;-82
2022/11/28 09:17:10;;;;;;;4.33;3.70;;;8.80;99.90;;;;;;5058238;28;20210;-82
2022/11/28 09:19:35;;;;;;;4.27;3.53;;;8.80;99.90;;;;;;5093965;28;20184;-82
2022/11/28 09:22:01;;;;;;;5.13;3.50;;;8.80;99.90;;;;;;5063867;28;20204;-83
2022/11/28 09:24:29;;;;;;;5.40;3.37;;;8.90;99.90;;;;;;5059478;28;20234;-80
2022/11/28 09:26:55;;;;;;;5.20;3.73;;;8.80;99.90;;;;;;5100201;28;20195;-80
2022/11/28 09:29:20;;;;;;;3.80;3.20;;;8.80;99.90;;;;;;5094115;28;20172;-84
2022/11/28 09:31:46;;;;;;;3.93;3.30;;;8.90;99.90;;;;;;5096687;28;20193;-79
2022/11/28 09:34:11;;;;;;;4.07;3.20;;;8.90;99.90;;;;;;5110245;28;20188;-83
2022/11/28 09:36:39;;;;;;;5.30;3.60;;;9.00;99.90;;;;;;5105496;28;20205;-83
2022/11/28 09:39:05;;;;;;;4.07;3.57;;;8.90;99.90;;;;;;5093201;28;20184;-82
2022/11/28 09:41:55;;;;;;;4.77;3.83;;;8.90;99.90;;;;;;5057649;28;20196;-82
2022/11/28 09:44:42;;;;;;;5.23;3.87;;;9.00;99.90;;;;;;5058632;28;20208;-81
2022/11/28 09:47:18;;;;;;;8.33;4.10;;;9.00;99.90;;;;;;5059458;28;20173;-85
2022/11/28 09:50:15;;;;;;;4.07;3.40;;;9.00;99.90;;;;;;5078170;28;20176;-84
2022/11/28 09:52:53;;;;;;;4.97;3.93;;;9.00;99.90;;;;;;5064480;28;20213;-79
2022/11/28 09:55:51;;;;;;;3.93;3.50;;;8.90;99.90;;;;;;5059500;28;20230;-85
2022/11/28 09:58:26;;;;;;;5.43;3.53;;;9.00;99.90;;;;;;5058434;28;20188;-79
2022/11/28 10:01:12;;;;;;;4.40;3.37;;;9.10;99.90;;;;;;5093305;28;20259;-82
2022/11/28 10:04:01;;;;;;;4.10;3.30;;;9.10;99.90;;;;;;5049384;28;20188;-82
2022/11/28 10:06:34;;;;;;;4.23;3.47;;;9.20;99.90;;;;;;5063268;28;20185;-81
2022/11/28 10:09:18;;;;;;;5.10;3.90;;;9.10;99.90;;;;;;5060259;28;20191;-83
2022/11/28 10:12:02;;;;;;;4.83;3.63;;;9.20;99.90;;;;;;5092418;28;20192;-83
2022/11/28 10:14:31;;;;;;;4.80;3.50;;;9.20;99.90;;;;;;5055819;28;20188;-85
2022/11/28 10:17:17;;;;;;;5.30;3.50;;;9.20;99.90;;;;;;5061789;28;20191;-82
2022/11/28 10:19:53;;;;;;;5.87;4.27;;;9.20;99.90;;;;;;5047591;28;20212;-85
2022/11/28 10:22:31;;;;;;;6.80;3.60;;;9.20;99.90;;;;;;5095550;28;20191;-85
2022/11/28 10:25:07;;;;;;;5.03;4.53;;;9.30;99.90;;;;;;5091338;28;20264;-83
2022/11/28 10:27:34;;;;;;;4.70;3.77;;;9.30;99.90;;;;;;5058580;28;20530;-83
2022/11/28 10:30:05;;;;;;;5.00;3.73;;;9.30;99.90;;;;;;5059870;28;20248;-83
2022/11/28 10:32:37;;;;;;;4.23;3.27;;;9.30;99.90;;;;;;5059744;28;20187;-83
2022/11/28 10:35:10;;;;;;;4.53;3.73;;;9.30;99.90;;;;;;5093913;28;20177;-83
2022/11/28 10:37:38;;;;;;;6.27;3.57;;;9.30;99.90;;;;;;5060360;28;20181;-83
2022/11/28 10:40:21;;;;;;;5.90;3.50;;;9.40;99.90;;;;;;5095643;28;20181;-86
2022/11/28 10:43:22;;;;;;;4.73;3.43;;;9.40;99.90;;;;;;5083306;28;20194;-83
2022/11/28 10:46:14;;;;;;;4.40;3.50;;;9.40;99.90;;;;;;5091436;28;20232;-85
2022/11/28 10:48:44;;;;;;;4.50;3.50;;;9.40;99.90;;;;;;5091682;28;20199;-85
2022/11/28 10:51:31;;;;;;;5.13;3.43;;;9.40;99.90;;;;;;5065983;28;20171;-86
2022/11/28 10:54:38;;;;;;;5.00;3.70;;;9.40;99.90;;;;;;5076981;28;20168;-86
2022/11/28 10:57:22;;;;;;;4.83;3.90;;;9.40;99.90;;;;;;5035336;28;20268;-83
2022/11/28 11:00:14;;;;;;;4.50;3.53;;;9.40;99.90;;;;;;5071892;28;20177;-83
2022/11/28 11:02:55;;;;;;;4.63;3.67;;;9.40;99.90;;;;;;5094883;28;20184;-87
2022/11/28 11:05:25;;;;;;;4.57;3.90;;;9.40;99.90;;;;;;5058369;28;20366;-82
2022/11/28 11:08:06;;;;;;;5.27;3.20;;;9.40;99.90;;;;;;5077714;28;20220;-84
2022/11/28 11:10:50;;;;;;;5.17;3.83;;;9.40;99.90;;;;;;5098891;28;20192;-83
2022/11/28 11:13:19;;;;;;;5.23;4.00;;;9.40;99.90;;;;;;5090973;28;20177;-83
2022/11/28 11:15:47;;;;;;;5.20;3.80;;;9.50;99.90;;;;;;5091052;28;20181;-82
2022/11/28 11:18:30;;;;;;;4.50;3.97;;;9.40;99.90;;;;;;5057462;28;20199;-82
2022/11/28 11:21:15;;;;;;;4.93;3.80;;;9.40;99.90;;;;;;5091132;28;20180;-80
2022/11/28 11:23:43;;;;;;;5.47;4.20;;;9.40;99.90;;;;;;5057018;28;20216;-85
2022/11/28 11:26:26;;;;;;;6.60;4.20;;;9.50;99.90;;;;;;5097947;28;20191;-83
2022/11/28 11:28:53;;;;;;;5.60;4.60;;;9.40;99.90;;;;;;5062344;28;20200;-82
2022/11/28 11:31:25;;;;;;;7.27;4.53;;;9.50;99.90;;;;;;5090777;28;20180;-83
2022/11/28 11:34:04;;;;;;;5.13;4.10;;;9.40;99.90;;;;;;5059932;28;20180;-83
2022/11/28 11:36:35;;;;;;;5.47;4.37;;;9.40;99.90;;;;;;5094755;28;20264;-82
2022/11/28 11:39:12;;;;;;;6.47;4.43;;;9.40;99.90;;;;;;5095286;28;20184;-81
2022/11/28 11:42:11;;;;;;;6.83;4.50;;;9.40;99.90;;;;;;5080282;28;20204;-83
2022/11/28 11:44:36;;;;;;;5.60;4.30;;;9.40;99.90;;;;;;5067492;28;20205;-81
2022/11/28 11:47:08;;;;;;;5.77;4.40;;;9.40;99.90;;;;;;5062710;28;20188;-82
2022/11/28 11:49:33;;;;;;;5.30;3.97;;;9.30;99.90;;;;;;5096878;28;20267;-81
2022/11/28 11:52:14;;;;;;;5.57;4.20;;;9.40;99.90;;;;;;5063058;28;20243;-83
2022/11/28 11:54:52;;;;;;;4.70;3.93;;;9.40;99.90;;;;;;5061092;28;20180;-82
2022/11/28 11:57:23;;;;;;;4.37;3.90;;;9.40;99.90;;;;;;5062682;28;20177;-81
2022/11/28 11:59:54;;;;;;;4.97;3.80;;;9.40;99.90;;;;;;5097929;28;20218;-82
2022/11/28 12:02:32;;;;;;;5.03;3.80;;;9.50;99.90;;;;;;5059430;28;20203;-82
2022/11/28 12:05:14;;;;;;;5.37;4.30;;;9.50;99.90;;;;;;5062514;28;20219;-82
2022/11/28 12:08:16;;;;;;;5.77;3.90;;;9.50;99.90;;;;;;5063976;28;20208;-82
2022/11/28 12:10:50;;;;;;;5.17;3.90;;;9.50;99.90;;;;;;5056693;28;20211;-81
2022/11/28 12:13:20;;;;;;;5.90;4.67;;;9.50;99.90;;;;;;5065835;28;20208;-83
2022/11/28 12:15:55;;;;;;;4.83;3.67;;;9.50;99.90;;;;;;5094550;28;20172;-81
2022/11/28 12:18:46;;;;;;;5.23;4.00;;;9.50;99.90;;;;;;5094573;28;20191;-80
2022/11/28 12:21:27;;;;;;;5.10;4.10;;;9.50;99.90;;;;;;5094102;28;20185;-80
2022/11/28 12:24:04;;;;;;;4.93;3.70;;;9.50;99.90;;;;;;5094521;28;20195;-80
2022/11/28 12:26:58;;;;;;;4.63;4.03;;;9.50;99.90;;;;;;5060926;28;20344;-80
2022/11/28 12:29:58;;;;;;;6.60;4.07;;;9.50;99.90;;;;;;5095590;28;20196;-83
2022/11/28 12:33:08;;;;;;;5.17;3.93;;;9.50;99.90;;;;;;5081986;28;20177;-82
2022/11/28 12:35:42;;;;;;;5.57;4.13;;;9.50;99.90;;;;;;5040728;28;20211;-81
2022/11/28 12:38:40;;;;;;;7.30;4.47;;;9.60;99.90;;;;;;5094521;28;20203;-79
2022/11/28 12:41:31;;;;;;;6.17;4.00;;;9.50;99.90;;;;;;5041053;28;20196;-82
2022/11/28 12:44:22;;;;;;;5.27;4.10;;;9.50;99.90;;;;;;5059421;28;20188;-81
2022/11/28 12:46:56;;;;;;;4.17;3.70;;;9.50;99.90;;;;;;5093060;28;20168;-82
2022/11/28 12:49:53;;;;;;;4.50;3.70;;;9.50;99.90;;;;;;5062830;28;20172;-79
2022/11/28 12:52:33;;;;;;;5.93;3.80;;;9.50;99.90;;;;;;5058182;28;20199;-81
2022/11/28 12:55:19;;;;;;;5.23;3.60;;;9.50;99.90;;;;;;5065952;28;20297;-81
2022/11/28 12:58:05;;;;;;;4.73;3.40;;;9.50;99.90;;;;;;5094262;28;20184;-81
2022/11/28 13:00:32;;;;;;;6.13;3.53;;;9.50;99.90;;;;;;5079974;28;20271;-81
2022/11/28 13:03:21;;;;;;;3.87;3.37;;;9.60;99.90;;;;;;5098347;28;20189;-82
2022/11/28 13:06:00;;;;;;;3.83;3.37;;;9.70;99.90;;;;;;5092664;28;20275;-81
2022/11/28 13:08:52;;;;;;;4.03;3.17;;;9.70;99.90;;;;;;5092896;28;20251;-82
2022/11/28 13:11:26;;;;;;;4.47;3.33;;;9.70;99.90;;;;;;5104016;28;20180;-81
2022/11/28 13:14:02;;;;;;;7.65;4.00;;;9.80;99.90;;;;;;5068406;28;20191;-81
2022/11/28 13:16:51;;;;;;;5.00;3.20;;;9.80;99.90;;;;;;5062913;28;20229;-81
2022/11/28 13:19:27;;;;;;;4.20;3.20;;;9.90;99.90;;;;;;5056067;28;20318;-81
2022/11/28 13:22:08;;;;;;;4.38;3.08;;;9.90;99.90;;;;;;5061239;28;20176;-81
2022/11/28 13:24:49;;;;;;;4.10;3.38;;;9.90;99.90;;;;;;5059642;28;20200;-81
2022/11/28 13:27:31;;;;;;;4.05;3.25;;;10.00;99.90;;;;;;5089688;28;20207;-81
2022/11/28 13:30:21;;;;;;;4.63;3.20;;;10.00;99.90;;;;;;5093715;28;20180;-81
2022/11/28 13:33:01;;;;;;;4.30;3.15;;;10.00;99.90;;;;;;5093270;28;20180;-81